sensor_id;sensor_type;location;lat;lon;timestamp;P1;durP1;ratioP1;P2;durP2;ratioP2
9559;SDS011;4818;50.860;4.648;2023-09-19T00:00:34;15.75;;;1.15;;
9559;SDS011;4818;50.860;4.648;2023-09-19T00:03:01;9.02;;;0.70;;
9559;SDS011;4818;50.860;4.648;2023-09-19T00:05:28;7.05;;;0.70;;
9559;SDS011;4818;50.860;4.648;2023-09-19T00:07:55;7.18;;;0.70;;
9559;SDS011;4818;50.860;4.648;2023-09-19T00:10:25;9.30;;;1.40;;
9559;SDS011;4818;50.860;4.648;2023-09-19T00:12:54;12.35;;;0.98;;
9559;SDS011;4818;50.860;4.648;2023-09-19T00:15:24;9.52;;;0.60;;
9559;SDS011;4818;50.860;4.648;2023-09-19T00:17:54;6.75;;;0.70;;
9559;SDS011;4818;50.860;4.648;2023-09-19T00:20:20;10.40;;;0.73;;
9559;SDS011;4818;50.860;4.648;2023-09-19T00:22:48;8.02;;;1.20;;
9559;SDS011;4818;50.860;4.648;2023-09-19T00:25:19;5.68;;;0.63;;
9559;SDS011;4818;50.860;4.648;2023-09-19T00:27:45;5.28;;;0.57;;
9559;SDS011;4818;50.860;4.648;2023-09-19T00:30:14;15.45;;;1.17;;
9559;SDS011;4818;50.860;4.648;2023-09-19T00:35:15;6.22;;;0.50;;
9559;SDS011;4818;50.860;4.648;2023-09-19T00:37:42;9.18;;;0.95;;
9559;SDS011;4818;50.860;4.648;2023-09-19T00:40:09;9.13;;;1.15;;
9559;SDS011;4818;50.860;4.648;2023-09-19T00:42:41;12.23;;;0.85;;
9559;SDS011;4818;50.860;4.648;2023-09-19T00:45:07;9.88;;;0.55;;
9559;SDS011;4818;50.860;4.648;2023-09-19T00:47:44;10.50;;;0.82;;
9559;SDS011;4818;50.860;4.648;2023-09-19T00:50:17;13.13;;;1.00;;
9559;SDS011;4818;50.860;4.648;2023-09-19T00:52:45;9.25;;;1.10;;
9559;SDS011;4818;50.860;4.648;2023-09-19T00:55:12;13.27;;;1.13;;
9559;SDS011;4818;50.860;4.648;2023-09-19T00:57:41;12.57;;;0.80;;
9559;SDS011;4818;50.860;4.648;2023-09-19T01:00:09;6.13;;;0.80;;
9559;SDS011;4818;50.860;4.648;2023-09-19T01:02:40;13.55;;;0.93;;
9559;SDS011;4818;50.860;4.648;2023-09-19T01:05:08;10.90;;;0.98;;
9559;SDS011;4818;50.860;4.648;2023-09-19T01:07:35;9.25;;;0.88;;
9559;SDS011;4818;50.860;4.648;2023-09-19T01:10:05;6.82;;;0.93;;
9559;SDS011;4818;50.860;4.648;2023-09-19T01:12:45;6.30;;;1.02;;
9559;SDS011;4818;50.860;4.648;2023-09-19T01:17:53;13.00;;;0.98;;
9559;SDS011;4818;50.860;4.648;2023-09-19T01:20:29;11.38;;;0.77;;
9559;SDS011;4818;50.860;4.648;2023-09-19T01:30:39;9.35;;;1.30;;
9559;SDS011;4818;50.860;4.648;2023-09-19T01:33:08;7.55;;;1.25;;
9559;SDS011;4818;50.860;4.648;2023-09-19T01:35:39;15.20;;;1.70;;
9559;SDS011;4818;50.860;4.648;2023-09-19T01:38:08;9.77;;;0.80;;
9559;SDS011;4818;50.860;4.648;2023-09-19T01:40:43;9.70;;;0.90;;
9559;SDS011;4818;50.860;4.648;2023-09-19T01:50:44;5.65;;;0.60;;
9559;SDS011;4818;50.860;4.648;2023-09-19T01:53:24;8.63;;;0.90;;
9559;SDS011;4818;50.860;4.648;2023-09-19T01:55:55;9.80;;;0.65;;
9559;SDS011;4818;50.860;4.648;2023-09-19T02:01:12;5.82;;;0.73;;
9559;SDS011;4818;50.860;4.648;2023-09-19T02:03:41;4.80;;;0.70;;
9559;SDS011;4818;50.860;4.648;2023-09-19T02:06:13;9.27;;;0.60;;
9559;SDS011;4818;50.860;4.648;2023-09-19T02:08:40;17.60;;;1.58;;
9559;SDS011;4818;50.860;4.648;2023-09-19T02:11:07;7.93;;;1.40;;
9559;SDS011;4818;50.860;4.648;2023-09-19T02:13:33;10.13;;;0.70;;
9559;SDS011;4818;50.860;4.648;2023-09-19T02:15:59;13.45;;;1.38;;
9559;SDS011;4818;50.860;4.648;2023-09-19T02:18:26;8.52;;;1.13;;
9559;SDS011;4818;50.860;4.648;2023-09-19T02:20:53;10.02;;;0.80;;
9559;SDS011;4818;50.860;4.648;2023-09-19T02:23:21;12.43;;;1.10;;
9559;SDS011;4818;50.860;4.648;2023-09-19T02:25:53;8.93;;;1.33;;
9559;SDS011;4818;50.860;4.648;2023-09-19T02:28:20;6.05;;;0.70;;
9559;SDS011;4818;50.860;4.648;2023-09-19T02:30:47;10.82;;;0.95;;
9559;SDS011;4818;50.860;4.648;2023-09-19T02:33:14;6.38;;;0.90;;
9559;SDS011;4818;50.860;4.648;2023-09-19T02:35:41;12.65;;;1.80;;
9559;SDS011;4818;50.860;4.648;2023-09-19T02:38:07;13.70;;;1.98;;
9559;SDS011;4818;50.860;4.648;2023-09-19T02:40:36;8.77;;;0.90;;
9559;SDS011;4818;50.860;4.648;2023-09-19T02:43:03;11.23;;;0.95;;
9559;SDS011;4818;50.860;4.648;2023-09-19T02:45:30;8.85;;;1.27;;
9559;SDS011;4818;50.860;4.648;2023-09-19T02:47:57;10.25;;;1.05;;
9559;SDS011;4818;50.860;4.648;2023-09-19T02:50:23;10.80;;;0.85;;
9559;SDS011;4818;50.860;4.648;2023-09-19T02:52:50;7.88;;;0.68;;
9559;SDS011;4818;50.860;4.648;2023-09-19T02:55:17;4.32;;;0.75;;
9559;SDS011;4818;50.860;4.648;2023-09-19T02:57:48;7.43;;;0.80;;
9559;SDS011;4818;50.860;4.648;2023-09-19T03:00:15;9.48;;;0.98;;
9559;SDS011;4818;50.860;4.648;2023-09-19T03:02:42;5.25;;;1.23;;
9559;SDS011;4818;50.860;4.648;2023-09-19T03:05:09;10.43;;;1.40;;
9559;SDS011;4818;50.860;4.648;2023-09-19T03:07:36;9.73;;;1.13;;
9559;SDS011;4818;50.860;4.648;2023-09-19T03:10:04;19.45;;;1.45;;
9559;SDS011;4818;50.860;4.648;2023-09-19T03:12:30;10.35;;;1.00;;
9559;SDS011;4818;50.860;4.648;2023-09-19T03:14:57;9.82;;;1.08;;
9559;SDS011;4818;50.860;4.648;2023-09-19T03:17:24;14.20;;;0.93;;
9559;SDS011;4818;50.860;4.648;2023-09-19T03:19:51;16.45;;;1.10;;
9559;SDS011;4818;50.860;4.648;2023-09-19T03:22:17;7.03;;;0.77;;
9559;SDS011;4818;50.860;4.648;2023-09-19T03:24:43;11.52;;;0.88;;
9559;SDS011;4818;50.860;4.648;2023-09-19T03:27:11;9.43;;;0.60;;
9559;SDS011;4818;50.860;4.648;2023-09-19T03:32:07;9.10;;;1.23;;
9559;SDS011;4818;50.860;4.648;2023-09-19T03:34:36;10.30;;;1.92;;
9559;SDS011;4818;50.860;4.648;2023-09-19T03:37:07;11.10;;;1.13;;
9559;SDS011;4818;50.860;4.648;2023-09-19T03:39:34;4.50;;;0.80;;
9559;SDS011;4818;50.860;4.648;2023-09-19T03:42:01;5.38;;;0.80;;
9559;SDS011;4818;50.860;4.648;2023-09-19T03:44:29;9.50;;;0.98;;
9559;SDS011;4818;50.860;4.648;2023-09-19T03:46:56;8.57;;;0.95;;
9559;SDS011;4818;50.860;4.648;2023-09-19T03:49:23;9.65;;;0.70;;
9559;SDS011;4818;50.860;4.648;2023-09-19T03:51:49;8.90;;;1.50;;
9559;SDS011;4818;50.860;4.648;2023-09-19T03:54:15;8.20;;;1.00;;
9559;SDS011;4818;50.860;4.648;2023-09-19T03:56:44;7.90;;;0.63;;
9559;SDS011;4818;50.860;4.648;2023-09-19T03:59:11;10.27;;;1.27;;
9559;SDS011;4818;50.860;4.648;2023-09-19T04:01:37;7.68;;;1.13;;
9559;SDS011;4818;50.860;4.648;2023-09-19T04:04:04;23.50;;;2.30;;
9559;SDS011;4818;50.860;4.648;2023-09-19T04:06:36;11.67;;;0.70;;
9559;SDS011;4818;50.860;4.648;2023-09-19T04:09:03;8.07;;;1.17;;
9559;SDS011;4818;50.860;4.648;2023-09-19T04:11:32;10.38;;;0.70;;
9559;SDS011;4818;50.860;4.648;2023-09-19T04:13:58;16.05;;;1.20;;
9559;SDS011;4818;50.860;4.648;2023-09-19T04:16:25;17.30;;;1.38;;
9559;SDS011;4818;50.860;4.648;2023-09-19T04:18:51;12.07;;;1.52;;
9559;SDS011;4818;50.860;4.648;2023-09-19T04:21:17;7.05;;;1.20;;
9559;SDS011;4818;50.860;4.648;2023-09-19T04:23:44;7.78;;;1.10;;
9559;SDS011;4818;50.860;4.648;2023-09-19T04:26:10;12.38;;;1.10;;
9559;SDS011;4818;50.860;4.648;2023-09-19T04:28:37;18.02;;;1.75;;
9559;SDS011;4818;50.860;4.648;2023-09-19T04:31:04;12.38;;;1.08;;
9559;SDS011;4818;50.860;4.648;2023-09-19T04:33:32;19.33;;;2.17;;
9559;SDS011;4818;50.860;4.648;2023-09-19T04:36:00;10.68;;;1.40;;
9559;SDS011;4818;50.860;4.648;2023-09-19T04:38:28;9.63;;;1.05;;
9559;SDS011;4818;50.860;4.648;2023-09-19T04:40:58;9.45;;;1.33;;
9559;SDS011;4818;50.860;4.648;2023-09-19T04:43:25;9.70;;;1.58;;
9559;SDS011;4818;50.860;4.648;2023-09-19T04:45:51;8.88;;;1.20;;
9559;SDS011;4818;50.860;4.648;2023-09-19T04:48:21;10.67;;;1.30;;
9559;SDS011;4818;50.860;4.648;2023-09-19T04:50:49;9.18;;;1.25;;
9559;SDS011;4818;50.860;4.648;2023-09-19T04:53:17;6.80;;;1.17;;
9559;SDS011;4818;50.860;4.648;2023-09-19T04:55:49;9.25;;;1.02;;
9559;SDS011;4818;50.860;4.648;2023-09-19T05:00:42;8.60;;;0.93;;
9559;SDS011;4818;50.860;4.648;2023-09-19T05:03:08;9.20;;;0.93;;
9559;SDS011;4818;50.860;4.648;2023-09-19T05:05:35;12.80;;;0.88;;
9559;SDS011;4818;50.860;4.648;2023-09-19T05:08:01;7.43;;;0.95;;
9559;SDS011;4818;50.860;4.648;2023-09-19T05:10:30;7.00;;;0.80;;
9559;SDS011;4818;50.860;4.648;2023-09-19T05:12:57;11.00;;;1.08;;
9559;SDS011;4818;50.860;4.648;2023-09-19T05:15:23;13.55;;;0.90;;
9559;SDS011;4818;50.860;4.648;2023-09-19T05:17:50;8.98;;;0.93;;
9559;SDS011;4818;50.860;4.648;2023-09-19T05:20:17;9.90;;;1.30;;
9559;SDS011;4818;50.860;4.648;2023-09-19T05:23:00;6.85;;;0.90;;
9559;SDS011;4818;50.860;4.648;2023-09-19T05:25:31;8.27;;;1.30;;
9559;SDS011;4818;50.860;4.648;2023-09-19T05:30:24;7.15;;;0.55;;
9559;SDS011;4818;50.860;4.648;2023-09-19T05:32:52;8.88;;;1.23;;
9559;SDS011;4818;50.860;4.648;2023-09-19T05:35:22;13.90;;;0.80;;
9559;SDS011;4818;50.860;4.648;2023-09-19T05:37:52;9.75;;;0.93;;
9559;SDS011;4818;50.860;4.648;2023-09-19T05:40:20;9.30;;;0.88;;
9559;SDS011;4818;50.860;4.648;2023-09-19T05:42:46;11.23;;;1.48;;
9559;SDS011;4818;50.860;4.648;2023-09-19T05:45:14;10.60;;;1.10;;
9559;SDS011;4818;50.860;4.648;2023-09-19T05:47:47;10.52;;;0.80;;
9559;SDS011;4818;50.860;4.648;2023-09-19T05:50:13;10.85;;;1.05;;
9559;SDS011;4818;50.860;4.648;2023-09-19T05:52:41;12.27;;;0.65;;
9559;SDS011;4818;50.860;4.648;2023-09-19T05:55:09;10.60;;;1.00;;
9559;SDS011;4818;50.860;4.648;2023-09-19T05:57:36;11.82;;;0.98;;
9559;SDS011;4818;50.860;4.648;2023-09-19T06:00:05;17.23;;;1.00;;
9559;SDS011;4818;50.860;4.648;2023-09-19T06:02:36;12.63;;;1.25;;
9559;SDS011;4818;50.860;4.648;2023-09-19T06:05:06;8.60;;;0.73;;
9559;SDS011;4818;50.860;4.648;2023-09-19T06:07:36;11.65;;;0.85;;
9559;SDS011;4818;50.860;4.648;2023-09-19T06:10:05;8.98;;;0.95;;
9559;SDS011;4818;50.860;4.648;2023-09-19T06:12:33;11.50;;;1.75;;
9559;SDS011;4818;50.860;4.648;2023-09-19T06:15:02;15.85;;;0.63;;
9559;SDS011;4818;50.860;4.648;2023-09-19T06:17:30;12.45;;;1.10;;
9559;SDS011;4818;50.860;4.648;2023-09-19T06:19:56;11.50;;;1.42;;
9559;SDS011;4818;50.860;4.648;2023-09-19T06:22:24;8.88;;;0.93;;
9559;SDS011;4818;50.860;4.648;2023-09-19T06:24:50;14.25;;;1.70;;
9559;SDS011;4818;50.860;4.648;2023-09-19T06:27:16;10.82;;;1.17;;
9559;SDS011;4818;50.860;4.648;2023-09-19T06:29:43;9.40;;;0.75;;
9559;SDS011;4818;50.860;4.648;2023-09-19T06:32:09;10.95;;;1.25;;
9559;SDS011;4818;50.860;4.648;2023-09-19T06:34:36;11.57;;;1.25;;
9559;SDS011;4818;50.860;4.648;2023-09-19T06:37:04;7.10;;;1.38;;
9559;SDS011;4818;50.860;4.648;2023-09-19T06:39:31;8.18;;;1.30;;
9559;SDS011;4818;50.860;4.648;2023-09-19T06:42:00;6.07;;;1.02;;
9559;SDS011;4818;50.860;4.648;2023-09-19T06:44:27;7.88;;;0.60;;
9559;SDS011;4818;50.860;4.648;2023-09-19T06:46:58;10.82;;;1.25;;
9559;SDS011;4818;50.860;4.648;2023-09-19T06:49:24;4.13;;;0.63;;
9559;SDS011;4818;50.860;4.648;2023-09-19T06:51:50;8.98;;;0.98;;
9559;SDS011;4818;50.860;4.648;2023-09-19T06:54:19;5.43;;;0.67;;
9559;SDS011;4818;50.860;4.648;2023-09-19T06:56:48;9.95;;;0.95;;
9559;SDS011;4818;50.860;4.648;2023-09-19T06:59:22;5.30;;;0.70;;
9559;SDS011;4818;50.860;4.648;2023-09-19T07:01:49;12.02;;;0.82;;
9559;SDS011;4818;50.860;4.648;2023-09-19T07:04:19;15.07;;;0.77;;
9559;SDS011;4818;50.860;4.648;2023-09-19T07:06:51;8.15;;;1.17;;
9559;SDS011;4818;50.860;4.648;2023-09-19T07:09:17;8.05;;;0.70;;
9559;SDS011;4818;50.860;4.648;2023-09-19T07:11:48;10.90;;;1.10;;
9559;SDS011;4818;50.860;4.648;2023-09-19T07:14:16;8.70;;;0.82;;
9559;SDS011;4818;50.860;4.648;2023-09-19T07:16:42;7.47;;;0.80;;
9559;SDS011;4818;50.860;4.648;2023-09-19T07:19:12;11.05;;;1.00;;
9559;SDS011;4818;50.860;4.648;2023-09-19T07:21:40;5.38;;;0.50;;
9559;SDS011;4818;50.860;4.648;2023-09-19T07:24:07;16.23;;;1.20;;
9559;SDS011;4818;50.860;4.648;2023-09-19T07:26:34;6.07;;;1.13;;
9559;SDS011;4818;50.860;4.648;2023-09-19T07:29:00;6.75;;;0.63;;
9559;SDS011;4818;50.860;4.648;2023-09-19T07:31:29;10.00;;;1.00;;
9559;SDS011;4818;50.860;4.648;2023-09-19T07:33:59;9.50;;;0.82;;
9559;SDS011;4818;50.860;4.648;2023-09-19T07:36:25;9.35;;;1.25;;
9559;SDS011;4818;50.860;4.648;2023-09-19T07:38:51;6.90;;;0.60;;
9559;SDS011;4818;50.860;4.648;2023-09-19T07:41:17;13.40;;;1.27;;
9559;SDS011;4818;50.860;4.648;2023-09-19T07:43:44;5.32;;;0.65;;
9559;SDS011;4818;50.860;4.648;2023-09-19T07:46:10;6.80;;;0.75;;
9559;SDS011;4818;50.860;4.648;2023-09-19T07:48:39;5.00;;;0.60;;
9559;SDS011;4818;50.860;4.648;2023-09-19T07:51:06;6.03;;;0.57;;
9559;SDS011;4818;50.860;4.648;2023-09-19T07:53:33;6.28;;;0.80;;
9559;SDS011;4818;50.860;4.648;2023-09-19T07:56:06;10.65;;;0.98;;
9559;SDS011;4818;50.860;4.648;2023-09-19T07:58:32;7.88;;;1.02;;
9559;SDS011;4818;50.860;4.648;2023-09-19T08:01:03;7.47;;;0.88;;
9559;SDS011;4818;50.860;4.648;2023-09-19T08:03:29;6.13;;;0.65;;
9559;SDS011;4818;50.860;4.648;2023-09-19T08:05:56;7.60;;;0.77;;
9559;SDS011;4818;50.860;4.648;2023-09-19T08:08:26;6.65;;;1.10;;
9559;SDS011;4818;50.860;4.648;2023-09-19T08:10:53;8.40;;;0.82;;
9559;SDS011;4818;50.860;4.648;2023-09-19T08:13:24;3.72;;;0.65;;
9559;SDS011;4818;50.860;4.648;2023-09-19T08:15:50;10.10;;;1.30;;
9559;SDS011;4818;50.860;4.648;2023-09-19T08:18:18;6.82;;;0.98;;
9559;SDS011;4818;50.860;4.648;2023-09-19T08:20:49;6.18;;;0.60;;
9559;SDS011;4818;50.860;4.648;2023-09-19T08:23:16;9.07;;;0.75;;
9559;SDS011;4818;50.860;4.648;2023-09-19T08:25:45;8.20;;;0.77;;
9559;SDS011;4818;50.860;4.648;2023-09-19T08:28:11;5.25;;;0.90;;
9559;SDS011;4818;50.860;4.648;2023-09-19T08:30:42;4.68;;;0.55;;
9559;SDS011;4818;50.860;4.648;2023-09-19T08:33:09;7.70;;;1.02;;
9559;SDS011;4818;50.860;4.648;2023-09-19T08:35:35;6.88;;;0.77;;
9559;SDS011;4818;50.860;4.648;2023-09-19T08:38:03;12.98;;;1.13;;
9559;SDS011;4818;50.860;4.648;2023-09-19T08:40:30;9.13;;;0.98;;
9559;SDS011;4818;50.860;4.648;2023-09-19T08:42:58;9.82;;;1.00;;
9559;SDS011;4818;50.860;4.648;2023-09-19T08:45:26;8.02;;;0.50;;
9559;SDS011;4818;50.860;4.648;2023-09-19T08:48:00;5.85;;;0.88;;
9559;SDS011;4818;50.860;4.648;2023-09-19T08:50:28;6.95;;;0.50;;
9559;SDS011;4818;50.860;4.648;2023-09-19T08:53:01;8.95;;;1.00;;
9559;SDS011;4818;50.860;4.648;2023-09-19T08:55:28;4.20;;;0.60;;
9559;SDS011;4818;50.860;4.648;2023-09-19T08:58:02;6.43;;;0.68;;
9559;SDS011;4818;50.860;4.648;2023-09-19T09:00:29;10.55;;;1.35;;
9559;SDS011;4818;50.860;4.648;2023-09-19T09:02:59;8.43;;;0.82;;
9559;SDS011;4818;50.860;4.648;2023-09-19T09:05:26;6.05;;;1.05;;
9559;SDS011;4818;50.860;4.648;2023-09-19T09:08:04;5.53;;;0.82;;
9559;SDS011;4818;50.860;4.648;2023-09-19T09:10:31;7.35;;;1.00;;
9559;SDS011;4818;50.860;4.648;2023-09-19T09:12:58;7.95;;;0.70;;
9559;SDS011;4818;50.860;4.648;2023-09-19T09:15:40;4.78;;;0.85;;
9559;SDS011;4818;50.860;4.648;2023-09-19T09:18:09;6.97;;;0.70;;
9559;SDS011;4818;50.860;4.648;2023-09-19T09:20:38;6.18;;;0.63;;
9559;SDS011;4818;50.860;4.648;2023-09-19T09:23:09;9.10;;;1.00;;
9559;SDS011;4818;50.860;4.648;2023-09-19T09:25:52;5.50;;;0.50;;
9559;SDS011;4818;50.860;4.648;2023-09-19T09:28:28;5.07;;;0.77;;
9559;SDS011;4818;50.860;4.648;2023-09-19T09:30:59;5.68;;;0.50;;
9559;SDS011;4818;50.860;4.648;2023-09-19T09:33:33;5.10;;;0.75;;
9559;SDS011;4818;50.860;4.648;2023-09-19T09:36:00;5.47;;;0.73;;
9559;SDS011;4818;50.860;4.648;2023-09-19T09:38:28;5.30;;;0.52;;
9559;SDS011;4818;50.860;4.648;2023-09-19T09:43:34;6.57;;;0.88;;
9559;SDS011;4818;50.860;4.648;2023-09-19T09:46:09;6.45;;;0.70;;
9559;SDS011;4818;50.860;4.648;2023-09-19T09:54:27;10.05;;;0.98;;
9559;SDS011;4818;50.860;4.648;2023-09-19T09:57:00;6.13;;;0.47;;
9559;SDS011;4818;50.860;4.648;2023-09-19T10:02:18;9.13;;;0.75;;
9559;SDS011;4818;50.860;4.648;2023-09-19T10:04:56;8.90;;;0.80;;
9559;SDS011;4818;50.860;4.648;2023-09-19T10:07:39;6.60;;;0.60;;
9559;SDS011;4818;50.860;4.648;2023-09-19T10:10:11;5.70;;;0.43;;
9559;SDS011;4818;50.860;4.648;2023-09-19T10:13:03;5.28;;;0.70;;
9559;SDS011;4818;50.860;4.648;2023-09-19T10:15:35;5.43;;;0.68;;
9559;SDS011;4818;50.860;4.648;2023-09-19T10:18:04;4.88;;;0.70;;
9559;SDS011;4818;50.860;4.648;2023-09-19T10:20:33;6.18;;;0.60;;
9559;SDS011;4818;50.860;4.648;2023-09-19T10:23:26;4.88;;;0.77;;
9559;SDS011;4818;50.860;4.648;2023-09-19T10:25:55;4.13;;;0.30;;
9559;SDS011;4818;50.860;4.648;2023-09-19T10:28:22;2.58;;;0.47;;
9559;SDS011;4818;50.860;4.648;2023-09-19T10:30:50;5.13;;;0.40;;
9559;SDS011;4818;50.860;4.648;2023-09-19T10:33:18;3.50;;;0.40;;
9559;SDS011;4818;50.860;4.648;2023-09-19T10:35:49;3.17;;;0.30;;
9559;SDS011;4818;50.860;4.648;2023-09-19T10:38:23;6.40;;;0.50;;
9559;SDS011;4818;50.860;4.648;2023-09-19T10:40:52;2.38;;;0.40;;
9559;SDS011;4818;50.860;4.648;2023-09-19T10:43:20;4.45;;;0.38;;
9559;SDS011;4818;50.860;4.648;2023-09-19T10:45:46;4.18;;;0.30;;
9559;SDS011;4818;50.860;4.648;2023-09-19T10:48:18;3.55;;;0.20;;
9559;SDS011;4818;50.860;4.648;2023-09-19T10:51:04;5.82;;;0.57;;
9559;SDS011;4818;50.860;4.648;2023-09-19T10:56:24;3.47;;;0.30;;
9559;SDS011;4818;50.860;4.648;2023-09-19T10:59:05;5.60;;;0.47;;
9559;SDS011;4818;50.860;4.648;2023-09-19T11:01:41;6.93;;;0.43;;
9559;SDS011;4818;50.860;4.648;2023-09-19T11:07:07;2.60;;;0.50;;
9559;SDS011;4818;50.860;4.648;2023-09-19T11:09:43;4.13;;;0.43;;
9559;SDS011;4818;50.860;4.648;2023-09-19T11:12:11;4.25;;;0.47;;
9559;SDS011;4818;50.860;4.648;2023-09-19T11:14:38;1.40;;;0.20;;
9559;SDS011;4818;50.860;4.648;2023-09-19T11:22:28;3.05;;;0.20;;
9559;SDS011;4818;50.860;4.648;2023-09-19T11:30:43;2.92;;;0.30;;
9559;SDS011;4818;50.860;4.648;2023-09-19T11:33:16;3.63;;;0.30;;
9559;SDS011;4818;50.860;4.648;2023-09-19T11:49:15;1.92;;;0.20;;
9559;SDS011;4818;50.860;4.648;2023-09-19T11:51:53;4.38;;;0.40;;
9559;SDS011;4818;50.860;4.648;2023-09-19T11:56:50;5.00;;;1.05;;
9559;SDS011;4818;50.860;4.648;2023-09-19T11:59:23;3.40;;;0.35;;
9559;SDS011;4818;50.860;4.648;2023-09-19T12:01:57;4.35;;;0.35;;
9559;SDS011;4818;50.860;4.648;2023-09-19T12:07:12;2.25;;;0.43;;
9559;SDS011;4818;50.860;4.648;2023-09-19T12:09:45;2.67;;;0.20;;
9559;SDS011;4818;50.860;4.648;2023-09-19T12:12:25;4.63;;;0.30;;
9559;SDS011;4818;50.860;4.648;2023-09-19T12:15:00;1.73;;;0.20;;
9559;SDS011;4818;50.860;4.648;2023-09-19T12:17:39;2.80;;;0.47;;
9559;SDS011;4818;50.860;4.648;2023-09-19T12:20:09;5.15;;;0.28;;
9559;SDS011;4818;50.860;4.648;2023-09-19T12:22:42;2.08;;;0.20;;
9559;SDS011;4818;50.860;4.648;2023-09-19T12:25:09;2.95;;;0.30;;
9559;SDS011;4818;50.860;4.648;2023-09-19T12:27:43;2.38;;;0.20;;
9559;SDS011;4818;50.860;4.648;2023-09-19T12:30:12;0.80;;;0.20;;
9559;SDS011;4818;50.860;4.648;2023-09-19T12:32:43;1.95;;;0.17;;
9559;SDS011;4818;50.860;4.648;2023-09-19T12:35:10;1.55;;;0.40;;
9559;SDS011;4818;50.860;4.648;2023-09-19T12:37:37;2.08;;;0.22;;
9559;SDS011;4818;50.860;4.648;2023-09-19T12:40:04;4.40;;;0.57;;
9559;SDS011;4818;50.860;4.648;2023-09-19T12:42:42;1.80;;;0.20;;
9559;SDS011;4818;50.860;4.648;2023-09-19T12:45:09;5.05;;;0.50;;
9559;SDS011;4818;50.860;4.648;2023-09-19T12:47:39;10.48;;;0.47;;
9559;SDS011;4818;50.860;4.648;2023-09-19T12:50:12;4.88;;;0.30;;
9559;SDS011;4818;50.860;4.648;2023-09-19T12:52:46;3.63;;;0.20;;
9559;SDS011;4818;50.860;4.648;2023-09-19T12:55:28;3.85;;;0.10;;
9559;SDS011;4818;50.860;4.648;2023-09-19T12:58:13;2.05;;;0.20;;
9559;SDS011;4818;50.860;4.648;2023-09-19T13:00:45;5.60;;;0.40;;
9559;SDS011;4818;50.860;4.648;2023-09-19T13:03:12;5.85;;;0.22;;
9559;SDS011;4818;50.860;4.648;2023-09-19T13:06:14;2.95;;;0.55;;
9559;SDS011;4818;50.860;4.648;2023-09-19T13:08:35;3.03;;;0.17;;
9559;SDS011;4818;50.860;4.648;2023-09-19T13:11:04;3.75;;;0.43;;
9559;SDS011;4818;50.860;4.648;2023-09-19T13:13:31;3.03;;;0.50;;
9559;SDS011;4818;50.860;4.648;2023-09-19T13:15:58;1.42;;;0.20;;
9559;SDS011;4818;50.860;4.648;2023-09-19T13:18:31;3.45;;;0.20;;
9559;SDS011;4818;50.860;4.648;2023-09-19T13:21:07;5.55;;;0.30;;
9559;SDS011;4818;50.860;4.648;2023-09-19T13:23:43;0.90;;;0.13;;
9559;SDS011;4818;50.860;4.648;2023-09-19T13:26:11;2.72;;;0.20;;
9559;SDS011;4818;50.860;4.648;2023-09-19T13:28:38;4.97;;;0.50;;
9559;SDS011;4818;50.860;4.648;2023-09-19T13:31:04;2.63;;;0.20;;
9559;SDS011;4818;50.860;4.648;2023-09-19T13:33:30;3.30;;;0.20;;
9559;SDS011;4818;50.860;4.648;2023-09-19T13:35:57;4.13;;;0.20;;
9559;SDS011;4818;50.860;4.648;2023-09-19T13:38:23;4.30;;;0.50;;
9559;SDS011;4818;50.860;4.648;2023-09-19T13:40:50;2.08;;;0.20;;
9559;SDS011;4818;50.860;4.648;2023-09-19T13:43:17;2.55;;;0.30;;
9559;SDS011;4818;50.860;4.648;2023-09-19T13:45:44;1.02;;;0.13;;
9559;SDS011;4818;50.860;4.648;2023-09-19T13:48:13;2.55;;;0.20;;
9559;SDS011;4818;50.860;4.648;2023-09-19T13:50:42;2.30;;;0.20;;
9559;SDS011;4818;50.860;4.648;2023-09-19T13:53:08;6.90;;;0.40;;
9559;SDS011;4818;50.860;4.648;2023-09-19T13:55:35;2.13;;;0.30;;
9559;SDS011;4818;50.860;4.648;2023-09-19T13:58:03;3.30;;;0.40;;
9559;SDS011;4818;50.860;4.648;2023-09-19T14:00:31;2.03;;;0.40;;
9559;SDS011;4818;50.860;4.648;2023-09-19T14:03:01;2.67;;;0.43;;
9559;SDS011;4818;50.860;4.648;2023-09-19T14:05:29;3.92;;;0.32;;
9559;SDS011;4818;50.860;4.648;2023-09-19T14:07:56;1.15;;;0.20;;
9559;SDS011;4818;50.860;4.648;2023-09-19T14:10:24;2.35;;;0.22;;
9559;SDS011;4818;50.860;4.648;2023-09-19T14:12:57;3.70;;;0.30;;
9559;SDS011;4818;50.860;4.648;2023-09-19T14:15:24;1.60;;;0.20;;
9559;SDS011;4818;50.860;4.648;2023-09-19T14:20:21;3.97;;;0.30;;
9559;SDS011;4818;50.860;4.648;2023-09-19T14:22:47;2.85;;;0.52;;
9559;SDS011;4818;50.860;4.648;2023-09-19T14:25:14;2.28;;;0.30;;
9559;SDS011;4818;50.860;4.648;2023-09-19T14:27:40;6.47;;;0.30;;
9559;SDS011;4818;50.860;4.648;2023-09-19T14:30:06;2.00;;;0.25;;
9559;SDS011;4818;50.860;4.648;2023-09-19T14:32:34;4.80;;;0.20;;
9559;SDS011;4818;50.860;4.648;2023-09-19T14:35:01;3.90;;;0.30;;
9559;SDS011;4818;50.860;4.648;2023-09-19T14:37:27;1.50;;;0.20;;
9559;SDS011;4818;50.860;4.648;2023-09-19T14:39:54;4.82;;;0.30;;
9559;SDS011;4818;50.860;4.648;2023-09-19T14:42:21;2.28;;;0.20;;
9559;SDS011;4818;50.860;4.648;2023-09-19T14:44:48;3.63;;;0.45;;
9559;SDS011;4818;50.860;4.648;2023-09-19T14:47:15;3.35;;;0.40;;
9559;SDS011;4818;50.860;4.648;2023-09-19T14:49:42;4.57;;;0.40;;
9559;SDS011;4818;50.860;4.648;2023-09-19T14:52:09;3.88;;;0.30;;
9559;SDS011;4818;50.860;4.648;2023-09-19T14:54:37;3.13;;;0.30;;
9559;SDS011;4818;50.860;4.648;2023-09-19T14:57:06;5.03;;;0.30;;
9559;SDS011;4818;50.860;4.648;2023-09-19T14:59:36;5.13;;;0.30;;
9559;SDS011;4818;50.860;4.648;2023-09-19T15:02:03;6.73;;;0.50;;
9559;SDS011;4818;50.860;4.648;2023-09-19T15:04:29;3.55;;;0.30;;
9559;SDS011;4818;50.860;4.648;2023-09-19T15:06:56;1.95;;;0.63;;
9559;SDS011;4818;50.860;4.648;2023-09-19T15:09:23;5.18;;;0.68;;
9559;SDS011;4818;50.860;4.648;2023-09-19T15:11:54;5.85;;;0.50;;
9559;SDS011;4818;50.860;4.648;2023-09-19T15:16:48;3.63;;;0.40;;
9559;SDS011;4818;50.860;4.648;2023-09-19T15:19:14;7.95;;;0.50;;
9559;SDS011;4818;50.860;4.648;2023-09-19T15:21:42;5.28;;;0.43;;
9559;SDS011;4818;50.860;4.648;2023-09-19T15:24:09;3.78;;;0.50;;
9559;SDS011;4818;50.860;4.648;2023-09-19T15:26:43;3.60;;;0.32;;
9559;SDS011;4818;50.860;4.648;2023-09-19T15:29:10;3.95;;;0.50;;
9559;SDS011;4818;50.860;4.648;2023-09-19T15:31:36;3.70;;;0.35;;
9559;SDS011;4818;50.860;4.648;2023-09-19T15:34:05;2.63;;;0.30;;
9559;SDS011;4818;50.860;4.648;2023-09-19T15:39:03;2.55;;;0.30;;
9559;SDS011;4818;50.860;4.648;2023-09-19T15:41:37;4.57;;;0.30;;
9559;SDS011;4818;50.860;4.648;2023-09-19T15:44:11;1.40;;;0.40;;
9559;SDS011;4818;50.860;4.648;2023-09-19T15:46:38;2.55;;;0.30;;
9559;SDS011;4818;50.860;4.648;2023-09-19T15:49:04;3.85;;;0.30;;
9559;SDS011;4818;50.860;4.648;2023-09-19T15:51:31;5.53;;;0.40;;
9559;SDS011;4818;50.860;4.648;2023-09-19T15:53:57;2.53;;;0.40;;
9559;SDS011;4818;50.860;4.648;2023-09-19T15:56:25;3.08;;;0.30;;
9559;SDS011;4818;50.860;4.648;2023-09-19T15:58:52;7.05;;;0.40;;
9559;SDS011;4818;50.860;4.648;2023-09-19T16:01:20;2.60;;;0.30;;
9559;SDS011;4818;50.860;4.648;2023-09-19T16:03:50;4.88;;;0.30;;
9559;SDS011;4818;50.860;4.648;2023-09-19T16:06:29;5.18;;;0.35;;
9559;SDS011;4818;50.860;4.648;2023-09-19T16:08:57;3.03;;;0.30;;
9559;SDS011;4818;50.860;4.648;2023-09-19T16:13:53;4.93;;;0.65;;
9559;SDS011;4818;50.860;4.648;2023-09-19T16:16:20;2.83;;;0.22;;
9559;SDS011;4818;50.860;4.648;2023-09-19T16:18:49;4.97;;;0.25;;
9559;SDS011;4818;50.860;4.648;2023-09-19T16:21:23;3.83;;;0.40;;
9559;SDS011;4818;50.860;4.648;2023-09-19T16:23:55;3.33;;;0.50;;
9559;SDS011;4818;50.860;4.648;2023-09-19T16:26:22;2.63;;;0.40;;
9559;SDS011;4818;50.860;4.648;2023-09-19T16:28:49;3.70;;;0.30;;
9559;SDS011;4818;50.860;4.648;2023-09-19T16:31:16;1.75;;;0.40;;
9559;SDS011;4818;50.860;4.648;2023-09-19T16:33:43;5.38;;;0.30;;
9559;SDS011;4818;50.860;4.648;2023-09-19T16:36:10;2.55;;;0.30;;
9559;SDS011;4818;50.860;4.648;2023-09-19T16:38:37;4.60;;;0.45;;
9559;SDS011;4818;50.860;4.648;2023-09-19T16:41:04;4.38;;;0.40;;
9559;SDS011;4818;50.860;4.648;2023-09-19T16:43:30;2.90;;;0.25;;
9559;SDS011;4818;50.860;4.648;2023-09-19T16:46:00;7.60;;;0.20;;
9559;SDS011;4818;50.860;4.648;2023-09-19T16:48:27;4.68;;;0.30;;
9559;SDS011;4818;50.860;4.648;2023-09-19T16:51:01;4.05;;;0.40;;